Terminal Aerodrome Forecast
Issued by NWS North Platte, NE

Home | Current Version | Previous Version | Graphics & Text | Print | Product List | Glossary On
Versions: 1 2 3 4 5 6 7 8 9 10 11 12 13 14 15 16 17 18 19 20 21 22 23 24 25 26 27 28 29 30
000
FTUS43 KLBF 062000 AAA
TAFVTN
TAF AMD
KVTN 062024Z 0620/0718 16012KT P6SM -SHRA OVC050
      TEMPO 0621/0624 5SM -SHRA BKN025
     FM070000 16015KT P6SM VCSH OVC035
      TEMPO 0700/0703 5SM SHRA OVC025
     FM070300 17012KT P6SM -SHRA OVC020
     FM070700 31008KT P6SM VCSH OVC015=

USA.gov is the U.S. government's official web portal to all federal, state and local government web resources and services.